Rechercher aéroport 
image banner adimage banner adimage banner ad
image banner ad

L70 - Agua Dulce

Situé à Agua Dulce, United States

ICAO - L70, IATA -

Données fournies par Airmate  

Information générale

Coordonnées: N34°30'13" W118°18'47"
Élévation : 2633 feet MSL.
Variation magnétique : 14° East
Voir autres Aéroports à California

Données opérationnelles

Special qualification required
Heure actuelle UTC:
Heure actuelle locale:
Météo à : KPMD - Palmdale Usaf Plant 42 ( 25 km )
METAR: KPMD 231353Z 20004KT 10SM BKN100 19/09 A2999 RMK AO2 SLP128 T01940094
TAF: KPMD 231144Z 2312/2412 VRB05KT P6SM SKC FM232100 25012KT P6SM SKC FM240500 22006KT P6SM SKC
Voir NOTAMs / SUP AIP / TFR affectant cet aéroport [VIEW]
Fréquences de communication: [VIEW]

Pistes:

Identifiant RWYQFULongueur (ft)Largeur (ft)SurfaceLDA (ft)
04420550ASPH
22420550ASPH

Coordonnées de l'aéroport

Adresse: Agua Dulce United States

Vue satellite de L70